sensor_id;sensor_type;location;lat;lon;timestamp;P1;durP1;ratioP1;P2;durP2;ratioP2
22480;SDS011;11407;56.964;-2.212;2023-05-10T00:00:03;3.27;;;1.90;;
22480;SDS011;11407;56.964;-2.212;2023-05-10T00:02:29;1.87;;;1.50;;
22480;SDS011;11407;56.964;-2.212;2023-05-10T00:04:54;3.10;;;1.57;;
22480;SDS011;11407;56.964;-2.212;2023-05-10T00:07:20;3.20;;;1.40;;
22480;SDS011;11407;56.964;-2.212;2023-05-10T00:09:45;1.97;;;1.50;;
22480;SDS011;11407;56.964;-2.212;2023-05-10T00:12:10;1.63;;;1.33;;
22480;SDS011;11407;56.964;-2.212;2023-05-10T00:14:35;2.30;;;1.60;;
22480;SDS011;11407;56.964;-2.212;2023-05-10T00:17:01;1.50;;;1.40;;
22480;SDS011;11407;56.964;-2.212;2023-05-10T00:19:26;3.43;;;1.40;;
22480;SDS011;11407;56.964;-2.212;2023-05-10T00:21:51;2.73;;;1.67;;
22480;SDS011;11407;56.964;-2.212;2023-05-10T00:24:17;1.67;;;1.40;;
22480;SDS011;11407;56.964;-2.212;2023-05-10T00:26:42;2.00;;;1.50;;
22480;SDS011;11407;56.964;-2.212;2023-05-10T00:29:07;2.13;;;1.60;;
22480;SDS011;11407;56.964;-2.212;2023-05-10T00:31:32;3.20;;;1.63;;
22480;SDS011;11407;56.964;-2.212;2023-05-10T00:33:58;3.00;;;1.87;;
22480;SDS011;11407;56.964;-2.212;2023-05-10T00:36:23;3.00;;;2.10;;
22480;SDS011;11407;56.964;-2.212;2023-05-10T00:38:48;2.17;;;1.60;;
22480;SDS011;11407;56.964;-2.212;2023-05-10T00:41:14;2.57;;;1.60;;
22480;SDS011;11407;56.964;-2.212;2023-05-10T00:43:39;2.10;;;1.30;;
22480;SDS011;11407;56.964;-2.212;2023-05-10T00:46:04;4.63;;;1.70;;
22480;SDS011;11407;56.964;-2.212;2023-05-10T00:48:29;2.33;;;1.60;;
22480;SDS011;11407;56.964;-2.212;2023-05-10T00:50:55;2.37;;;1.33;;
22480;SDS011;11407;56.964;-2.212;2023-05-10T00:53:20;2.13;;;1.70;;
22480;SDS011;11407;56.964;-2.212;2023-05-10T00:55:46;2.70;;;1.40;;
22480;SDS011;11407;56.964;-2.212;2023-05-10T00:58:11;1.77;;;1.33;;
22480;SDS011;11407;56.964;-2.212;2023-05-10T01:00:37;2.50;;;1.23;;
22480;SDS011;11407;56.964;-2.212;2023-05-10T01:03:03;2.00;;;1.37;;
22480;SDS011;11407;56.964;-2.212;2023-05-10T01:05:28;4.60;;;1.40;;
22480;SDS011;11407;56.964;-2.212;2023-05-10T01:07:54;2.03;;;1.50;;
22480;SDS011;11407;56.964;-2.212;2023-05-10T01:10:19;3.57;;;1.50;;
22480;SDS011;11407;56.964;-2.212;2023-05-10T01:12:44;1.87;;;1.40;;
22480;SDS011;11407;56.964;-2.212;2023-05-10T01:15:10;1.60;;;1.27;;
22480;SDS011;11407;56.964;-2.212;2023-05-10T01:17:37;4.17;;;1.20;;
22480;SDS011;11407;56.964;-2.212;2023-05-10T01:20:02;1.47;;;1.20;;
22480;SDS011;11407;56.964;-2.212;2023-05-10T01:32:55;2.17;;;1.60;;
22480;SDS011;11407;56.964;-2.212;2023-05-10T01:43:08;1.47;;;1.37;;
22480;SDS011;11407;56.964;-2.212;2023-05-10T01:45:40;1.70;;;1.40;;
22480;SDS011;11407;56.964;-2.212;2023-05-10T01:48:08;3.20;;;1.30;;
22480;SDS011;11407;56.964;-2.212;2023-05-10T01:50:35;1.40;;;1.20;;
22480;SDS011;11407;56.964;-2.212;2023-05-10T01:53:01;1.40;;;1.30;;
22480;SDS011;11407;56.964;-2.212;2023-05-10T01:55:32;1.60;;;1.23;;
22480;SDS011;11407;56.964;-2.212;2023-05-10T01:58:05;1.80;;;1.40;;
22480;SDS011;11407;56.964;-2.212;2023-05-10T02:00:31;1.93;;;1.63;;
22480;SDS011;11407;56.964;-2.212;2023-05-10T02:02:56;2.57;;;1.30;;
22480;SDS011;11407;56.964;-2.212;2023-05-10T02:05:22;1.30;;;1.10;;
22480;SDS011;11407;56.964;-2.212;2023-05-10T02:07:47;2.63;;;1.27;;
22480;SDS011;11407;56.964;-2.212;2023-05-10T02:10:14;1.57;;;1.20;;
22480;SDS011;11407;56.964;-2.212;2023-05-10T02:12:44;1.67;;;1.50;;
22480;SDS011;11407;56.964;-2.212;2023-05-10T02:15:11;1.50;;;1.40;;
22480;SDS011;11407;56.964;-2.212;2023-05-10T02:17:37;1.60;;;1.40;;
22480;SDS011;11407;56.964;-2.212;2023-05-10T02:20:03;1.70;;;1.30;;
22480;SDS011;11407;56.964;-2.212;2023-05-10T02:22:29;1.50;;;1.33;;
22480;SDS011;11407;56.964;-2.212;2023-05-10T02:24:58;3.23;;;1.40;;
22480;SDS011;11407;56.964;-2.212;2023-05-10T02:27:24;2.07;;;1.57;;
22480;SDS011;11407;56.964;-2.212;2023-05-10T02:29:50;2.57;;;1.40;;
22480;SDS011;11407;56.964;-2.212;2023-05-10T02:32:16;1.80;;;1.47;;
22480;SDS011;11407;56.964;-2.212;2023-05-10T02:34:42;1.60;;;1.50;;
22480;SDS011;11407;56.964;-2.212;2023-05-10T02:37:10;1.90;;;1.70;;
22480;SDS011;11407;56.964;-2.212;2023-05-10T02:39:36;1.50;;;1.40;;
22480;SDS011;11407;56.964;-2.212;2023-05-10T02:42:03;1.90;;;1.70;;
22480;SDS011;11407;56.964;-2.212;2023-05-10T02:44:28;2.43;;;1.80;;
22480;SDS011;11407;56.964;-2.212;2023-05-10T02:46:56;2.27;;;1.60;;
22480;SDS011;11407;56.964;-2.212;2023-05-10T02:49:21;1.93;;;1.50;;
22480;SDS011;11407;56.964;-2.212;2023-05-10T02:51:49;2.83;;;1.60;;
22480;SDS011;11407;56.964;-2.212;2023-05-10T02:54:23;2.80;;;1.63;;
22480;SDS011;11407;56.964;-2.212;2023-05-10T02:56:50;2.13;;;1.67;;
22480;SDS011;11407;56.964;-2.212;2023-05-10T02:59:16;2.60;;;1.70;;
22480;SDS011;11407;56.964;-2.212;2023-05-10T03:01:41;2.07;;;1.70;;
22480;SDS011;11407;56.964;-2.212;2023-05-10T03:04:07;2.07;;;1.80;;
22480;SDS011;11407;56.964;-2.212;2023-05-10T03:06:32;1.73;;;1.60;;
22480;SDS011;11407;56.964;-2.212;2023-05-10T03:08:57;1.57;;;1.40;;
22480;SDS011;11407;56.964;-2.212;2023-05-10T03:16:24;2.93;;;1.90;;
22480;SDS011;11407;56.964;-2.212;2023-05-10T03:18:56;3.47;;;2.03;;
22480;SDS011;11407;56.964;-2.212;2023-05-10T03:21:25;2.60;;;1.63;;
22480;SDS011;11407;56.964;-2.212;2023-05-10T03:23:58;2.33;;;1.47;;
22480;SDS011;11407;56.964;-2.212;2023-05-10T03:26:25;2.40;;;1.80;;
22480;SDS011;11407;56.964;-2.212;2023-05-10T03:28:51;2.57;;;1.80;;
22480;SDS011;11407;56.964;-2.212;2023-05-10T03:31:17;2.47;;;1.47;;
22480;SDS011;11407;56.964;-2.212;2023-05-10T03:33:46;2.20;;;1.50;;
22480;SDS011;11407;56.964;-2.212;2023-05-10T03:36:12;2.60;;;1.63;;
22480;SDS011;11407;56.964;-2.212;2023-05-10T03:38:37;2.53;;;1.70;;
22480;SDS011;11407;56.964;-2.212;2023-05-10T03:41:02;2.27;;;1.60;;
22480;SDS011;11407;56.964;-2.212;2023-05-10T03:43:28;1.90;;;1.70;;
22480;SDS011;11407;56.964;-2.212;2023-05-10T03:45:53;2.17;;;1.70;;
22480;SDS011;11407;56.964;-2.212;2023-05-10T03:48:18;1.77;;;1.43;;
22480;SDS011;11407;56.964;-2.212;2023-05-10T03:50:44;1.87;;;1.63;;
22480;SDS011;11407;56.964;-2.212;2023-05-10T03:53:09;2.53;;;2.07;;
22480;SDS011;11407;56.964;-2.212;2023-05-10T03:55:34;2.10;;;1.90;;
22480;SDS011;11407;56.964;-2.212;2023-05-10T03:58:01;2.53;;;2.03;;
22480;SDS011;11407;56.964;-2.212;2023-05-10T04:00:26;3.30;;;2.00;;
22480;SDS011;11407;56.964;-2.212;2023-05-10T04:02:51;3.00;;;2.20;;
22480;SDS011;11407;56.964;-2.212;2023-05-10T04:05:17;2.77;;;2.07;;
22480;SDS011;11407;56.964;-2.212;2023-05-10T04:07:42;2.90;;;2.10;;
22480;SDS011;11407;56.964;-2.212;2023-05-10T04:10:09;2.63;;;1.63;;
22480;SDS011;11407;56.964;-2.212;2023-05-10T04:12:34;2.70;;;2.03;;
22480;SDS011;11407;56.964;-2.212;2023-05-10T04:14:59;2.10;;;1.90;;
22480;SDS011;11407;56.964;-2.212;2023-05-10T04:17:25;2.80;;;2.00;;
22480;SDS011;11407;56.964;-2.212;2023-05-10T04:19:50;2.70;;;1.83;;
22480;SDS011;11407;56.964;-2.212;2023-05-10T04:22:18;2.33;;;1.67;;
22480;SDS011;11407;56.964;-2.212;2023-05-10T04:24:43;2.00;;;1.80;;
22480;SDS011;11407;56.964;-2.212;2023-05-10T04:27:08;3.40;;;1.73;;
22480;SDS011;11407;56.964;-2.212;2023-05-10T04:29:33;3.80;;;2.10;;
22480;SDS011;11407;56.964;-2.212;2023-05-10T04:31:59;3.30;;;2.10;;
22480;SDS011;11407;56.964;-2.212;2023-05-10T04:34:24;2.70;;;1.97;;
22480;SDS011;11407;56.964;-2.212;2023-05-10T04:36:49;4.23;;;1.70;;
22480;SDS011;11407;56.964;-2.212;2023-05-10T04:39:15;2.30;;;1.50;;
22480;SDS011;11407;56.964;-2.212;2023-05-10T04:41:40;1.97;;;1.70;;
22480;SDS011;11407;56.964;-2.212;2023-05-10T04:44:05;3.60;;;1.77;;
22480;SDS011;11407;56.964;-2.212;2023-05-10T04:46:31;3.07;;;1.90;;
22480;SDS011;11407;56.964;-2.212;2023-05-10T04:48:56;2.50;;;1.80;;
22480;SDS011;11407;56.964;-2.212;2023-05-10T04:51:21;2.30;;;1.90;;
22480;SDS011;11407;56.964;-2.212;2023-05-10T04:53:46;4.43;;;1.80;;
22480;SDS011;11407;56.964;-2.212;2023-05-10T04:56:12;3.97;;;1.60;;
22480;SDS011;11407;56.964;-2.212;2023-05-10T04:58:37;1.73;;;1.37;;
22480;SDS011;11407;56.964;-2.212;2023-05-10T05:01:06;1.77;;;1.60;;
22480;SDS011;11407;56.964;-2.212;2023-05-10T05:03:32;2.27;;;1.63;;
22480;SDS011;11407;56.964;-2.212;2023-05-10T05:05:58;2.00;;;1.60;;
22480;SDS011;11407;56.964;-2.212;2023-05-10T05:08:23;2.37;;;1.80;;
22480;SDS011;11407;56.964;-2.212;2023-05-10T05:10:49;2.07;;;1.83;;
22480;SDS011;11407;56.964;-2.212;2023-05-10T05:13:15;2.80;;;1.97;;
22480;SDS011;11407;56.964;-2.212;2023-05-10T05:15:40;3.77;;;2.00;;
22480;SDS011;11407;56.964;-2.212;2023-05-10T05:18:05;2.30;;;1.80;;
22480;SDS011;11407;56.964;-2.212;2023-05-10T05:20:34;3.10;;;1.77;;
22480;SDS011;11407;56.964;-2.212;2023-05-10T05:22:59;3.83;;;1.90;;
22480;SDS011;11407;56.964;-2.212;2023-05-10T05:25:25;3.77;;;1.80;;
22480;SDS011;11407;56.964;-2.212;2023-05-10T05:27:50;2.37;;;2.10;;
22480;SDS011;11407;56.964;-2.212;2023-05-10T05:30:15;2.43;;;2.00;;
22480;SDS011;11407;56.964;-2.212;2023-05-10T05:32:41;3.60;;;2.17;;
22480;SDS011;11407;56.964;-2.212;2023-05-10T05:35:06;2.33;;;1.80;;
22480;SDS011;11407;56.964;-2.212;2023-05-10T05:37:32;2.77;;;1.83;;
22480;SDS011;11407;56.964;-2.212;2023-05-10T05:39:57;3.13;;;1.80;;
22480;SDS011;11407;56.964;-2.212;2023-05-10T05:42:22;2.40;;;1.80;;
22480;SDS011;11407;56.964;-2.212;2023-05-10T05:44:47;3.43;;;1.87;;
22480;SDS011;11407;56.964;-2.212;2023-05-10T05:47:13;5.17;;;2.07;;
22480;SDS011;11407;56.964;-2.212;2023-05-10T05:49:38;4.13;;;2.30;;
22480;SDS011;11407;56.964;-2.212;2023-05-10T05:52:04;3.00;;;1.73;;
22480;SDS011;11407;56.964;-2.212;2023-05-10T05:54:29;2.17;;;1.57;;
22480;SDS011;11407;56.964;-2.212;2023-05-10T05:56:58;3.27;;;1.90;;
22480;SDS011;11407;56.964;-2.212;2023-05-10T05:59:24;2.93;;;2.23;;
22480;SDS011;11407;56.964;-2.212;2023-05-10T06:01:49;2.23;;;1.87;;
22480;SDS011;11407;56.964;-2.212;2023-05-10T06:04:15;4.17;;;2.30;;
22480;SDS011;11407;56.964;-2.212;2023-05-10T06:06:40;2.80;;;1.90;;
22480;SDS011;11407;56.964;-2.212;2023-05-10T06:09:05;3.20;;;1.80;;
22480;SDS011;11407;56.964;-2.212;2023-05-10T06:11:31;2.40;;;1.73;;
22480;SDS011;11407;56.964;-2.212;2023-05-10T06:13:57;2.23;;;1.70;;
22480;SDS011;11407;56.964;-2.212;2023-05-10T06:16:22;2.23;;;2.00;;
22480;SDS011;11407;56.964;-2.212;2023-05-10T06:18:48;2.93;;;1.87;;
22480;SDS011;11407;56.964;-2.212;2023-05-10T06:21:13;2.60;;;1.70;;
22480;SDS011;11407;56.964;-2.212;2023-05-10T06:23:39;2.67;;;2.00;;
22480;SDS011;11407;56.964;-2.212;2023-05-10T06:26:05;2.77;;;2.00;;
22480;SDS011;11407;56.964;-2.212;2023-05-10T06:28:30;2.67;;;2.00;;
22480;SDS011;11407;56.964;-2.212;2023-05-10T06:30:57;2.73;;;2.10;;
22480;SDS011;11407;56.964;-2.212;2023-05-10T06:33:22;2.40;;;1.87;;
22480;SDS011;11407;56.964;-2.212;2023-05-10T06:35:47;2.87;;;2.03;;
22480;SDS011;11407;56.964;-2.212;2023-05-10T06:38:13;2.50;;;2.00;;
22480;SDS011;11407;56.964;-2.212;2023-05-10T06:40:41;2.17;;;1.60;;
22480;SDS011;11407;56.964;-2.212;2023-05-10T06:43:06;2.20;;;2.00;;
22480;SDS011;11407;56.964;-2.212;2023-05-10T06:45:31;2.33;;;2.00;;
22480;SDS011;11407;56.964;-2.212;2023-05-10T06:47:56;2.43;;;1.80;;
22480;SDS011;11407;56.964;-2.212;2023-05-10T06:50:22;3.27;;;1.87;;
22480;SDS011;11407;56.964;-2.212;2023-05-10T06:52:47;2.63;;;2.20;;
22480;SDS011;11407;56.964;-2.212;2023-05-10T06:55:12;2.37;;;2.07;;
22480;SDS011;11407;56.964;-2.212;2023-05-10T06:57:38;2.67;;;2.07;;
22480;SDS011;11407;56.964;-2.212;2023-05-10T07:00:03;4.80;;;1.80;;
22480;SDS011;11407;56.964;-2.212;2023-05-10T07:02:31;2.80;;;2.10;;
22480;SDS011;11407;56.964;-2.212;2023-05-10T07:04:57;2.23;;;1.93;;
22480;SDS011;11407;56.964;-2.212;2023-05-10T07:07:23;2.87;;;1.90;;
22480;SDS011;11407;56.964;-2.212;2023-05-10T07:09:49;2.33;;;1.90;;
22480;SDS011;11407;56.964;-2.212;2023-05-10T07:12:15;2.90;;;2.10;;
22480;SDS011;11407;56.964;-2.212;2023-05-10T07:14:40;2.50;;;2.07;;
22480;SDS011;11407;56.964;-2.212;2023-05-10T07:17:05;2.80;;;2.20;;
22480;SDS011;11407;56.964;-2.212;2023-05-10T07:19:31;2.80;;;2.20;;
22480;SDS011;11407;56.964;-2.212;2023-05-10T07:21:57;2.60;;;1.87;;
22480;SDS011;11407;56.964;-2.212;2023-05-10T07:24:22;5.77;;;1.97;;
22480;SDS011;11407;56.964;-2.212;2023-05-10T07:26:48;2.23;;;1.87;;
22480;SDS011;11407;56.964;-2.212;2023-05-10T07:29:13;2.33;;;1.80;;
22480;SDS011;11407;56.964;-2.212;2023-05-10T07:31:38;3.40;;;1.80;;
22480;SDS011;11407;56.964;-2.212;2023-05-10T07:34:06;4.57;;;1.83;;
22480;SDS011;11407;56.964;-2.212;2023-05-10T07:36:31;3.20;;;1.87;;
22480;SDS011;11407;56.964;-2.212;2023-05-10T07:38:57;2.40;;;1.87;;
22480;SDS011;11407;56.964;-2.212;2023-05-10T07:41:22;2.20;;;2.00;;
22480;SDS011;11407;56.964;-2.212;2023-05-10T07:43:48;4.47;;;1.93;;
22480;SDS011;11407;56.964;-2.212;2023-05-10T07:46:13;2.43;;;2.00;;
22480;SDS011;11407;56.964;-2.212;2023-05-10T07:48:39;2.30;;;2.10;;
22480;SDS011;11407;56.964;-2.212;2023-05-10T07:51:04;2.47;;;2.13;;
22480;SDS011;11407;56.964;-2.212;2023-05-10T07:53:32;2.50;;;2.30;;
22480;SDS011;11407;56.964;-2.212;2023-05-10T07:55:57;2.47;;;2.10;;
22480;SDS011;11407;56.964;-2.212;2023-05-10T07:58:23;4.83;;;2.33;;
22480;SDS011;11407;56.964;-2.212;2023-05-10T08:00:48;4.23;;;2.00;;
22480;SDS011;11407;56.964;-2.212;2023-05-10T08:03:14;2.33;;;2.13;;
22480;SDS011;11407;56.964;-2.212;2023-05-10T08:05:39;2.83;;;2.20;;
22480;SDS011;11407;56.964;-2.212;2023-05-10T08:08:05;2.83;;;2.30;;
22480;SDS011;11407;56.964;-2.212;2023-05-10T08:10:30;3.63;;;2.27;;
22480;SDS011;11407;56.964;-2.212;2023-05-10T08:12:56;3.50;;;2.17;;
22480;SDS011;11407;56.964;-2.212;2023-05-10T08:15:23;2.33;;;2.13;;
22480;SDS011;11407;56.964;-2.212;2023-05-10T08:17:48;2.77;;;1.90;;
22480;SDS011;11407;56.964;-2.212;2023-05-10T08:20:14;2.20;;;2.00;;
22480;SDS011;11407;56.964;-2.212;2023-05-10T08:22:41;3.00;;;2.07;;
22480;SDS011;11407;56.964;-2.212;2023-05-10T08:25:07;2.90;;;2.03;;
22480;SDS011;11407;56.964;-2.212;2023-05-10T08:27:32;3.93;;;2.20;;
22480;SDS011;11407;56.964;-2.212;2023-05-10T08:29:57;2.80;;;2.27;;
22480;SDS011;11407;56.964;-2.212;2023-05-10T08:32:23;3.10;;;2.00;;
22480;SDS011;11407;56.964;-2.212;2023-05-10T08:34:48;3.10;;;2.10;;
22480;SDS011;11407;56.964;-2.212;2023-05-10T08:37:13;2.50;;;2.20;;
22480;SDS011;11407;56.964;-2.212;2023-05-10T08:39:38;2.60;;;2.13;;
22480;SDS011;11407;56.964;-2.212;2023-05-10T08:42:04;3.97;;;2.00;;
22480;SDS011;11407;56.964;-2.212;2023-05-10T08:44:34;2.20;;;2.00;;
22480;SDS011;11407;56.964;-2.212;2023-05-10T08:47:01;2.87;;;2.00;;
22480;SDS011;11407;56.964;-2.212;2023-05-10T08:49:27;2.30;;;2.00;;
22480;SDS011;11407;56.964;-2.212;2023-05-10T08:51:56;2.00;;;1.70;;
22480;SDS011;11407;56.964;-2.212;2023-05-10T08:54:22;2.10;;;1.83;;
22480;SDS011;11407;56.964;-2.212;2023-05-10T08:56:47;2.60;;;2.00;;
22480;SDS011;11407;56.964;-2.212;2023-05-10T08:59:13;2.27;;;2.07;;
22480;SDS011;11407;56.964;-2.212;2023-05-10T09:01:39;2.40;;;1.90;;
22480;SDS011;11407;56.964;-2.212;2023-05-10T09:04:05;2.67;;;2.10;;
22480;SDS011;11407;56.964;-2.212;2023-05-10T09:06:30;2.27;;;2.03;;
22480;SDS011;11407;56.964;-2.212;2023-05-10T09:08:57;2.30;;;2.03;;
22480;SDS011;11407;56.964;-2.212;2023-05-10T09:11:22;2.73;;;2.23;;
22480;SDS011;11407;56.964;-2.212;2023-05-10T09:13:48;3.67;;;2.17;;
22480;SDS011;11407;56.964;-2.212;2023-05-10T09:16:15;2.80;;;2.00;;
22480;SDS011;11407;56.964;-2.212;2023-05-10T09:18:40;4.20;;;2.23;;
22480;SDS011;11407;56.964;-2.212;2023-05-10T09:21:06;2.30;;;2.00;;
22480;SDS011;11407;56.964;-2.212;2023-05-10T09:23:31;2.00;;;1.80;;
22480;SDS011;11407;56.964;-2.212;2023-05-10T09:26:06;3.07;;;2.30;;
22480;SDS011;11407;56.964;-2.212;2023-05-10T09:28:34;3.57;;;2.13;;
22480;SDS011;11407;56.964;-2.212;2023-05-10T09:31:14;2.90;;;2.13;;
22480;SDS011;11407;56.964;-2.212;2023-05-10T09:33:46;4.80;;;2.60;;
22480;SDS011;11407;56.964;-2.212;2023-05-10T09:36:12;4.27;;;2.70;;
22480;SDS011;11407;56.964;-2.212;2023-05-10T09:41:16;5.30;;;2.57;;
22480;SDS011;11407;56.964;-2.212;2023-05-10T09:43:42;3.47;;;2.77;;
22480;SDS011;11407;56.964;-2.212;2023-05-10T09:46:10;3.20;;;2.50;;
22480;SDS011;11407;56.964;-2.212;2023-05-10T09:48:46;4.70;;;2.33;;
22480;SDS011;11407;56.964;-2.212;2023-05-10T09:51:18;3.23;;;2.23;;
22480;SDS011;11407;56.964;-2.212;2023-05-10T09:53:43;3.20;;;2.40;;
22480;SDS011;11407;56.964;-2.212;2023-05-10T09:56:09;3.00;;;2.33;;
22480;SDS011;11407;56.964;-2.212;2023-05-10T09:58:36;3.30;;;2.50;;
22480;SDS011;11407;56.964;-2.212;2023-05-10T10:01:02;3.20;;;2.20;;
22480;SDS011;11407;56.964;-2.212;2023-05-10T10:03:27;2.90;;;2.20;;
22480;SDS011;11407;56.964;-2.212;2023-05-10T10:05:54;3.17;;;2.60;;
22480;SDS011;11407;56.964;-2.212;2023-05-10T10:08:20;3.47;;;2.77;;
22480;SDS011;11407;56.964;-2.212;2023-05-10T10:10:46;2.63;;;2.40;;
22480;SDS011;11407;56.964;-2.212;2023-05-10T10:13:12;3.67;;;2.63;;
22480;SDS011;11407;56.964;-2.212;2023-05-10T10:15:38;7.00;;;3.40;;
22480;SDS011;11407;56.964;-2.212;2023-05-10T10:18:04;12.10;;;7.70;;
22480;SDS011;11407;56.964;-2.212;2023-05-10T10:20:30;6.33;;;4.53;;
22480;SDS011;11407;56.964;-2.212;2023-05-10T10:22:55;8.00;;;5.30;;
22480;SDS011;11407;56.964;-2.212;2023-05-10T10:25:20;3.87;;;3.37;;
22480;SDS011;11407;56.964;-2.212;2023-05-10T10:27:54;9.43;;;5.70;;
22480;SDS011;11407;56.964;-2.212;2023-05-10T10:35:32;7.33;;;4.87;;
22480;SDS011;11407;56.964;-2.212;2023-05-10T10:37:58;4.60;;;3.47;;
22480;SDS011;11407;56.964;-2.212;2023-05-10T10:40:27;3.63;;;3.27;;
22480;SDS011;11407;56.964;-2.212;2023-05-10T10:42:52;4.77;;;3.80;;
22480;SDS011;11407;56.964;-2.212;2023-05-10T10:45:18;5.40;;;3.97;;
22480;SDS011;11407;56.964;-2.212;2023-05-10T10:47:44;5.67;;;4.30;;
22480;SDS011;11407;56.964;-2.212;2023-05-10T10:50:10;11.17;;;6.80;;
22480;SDS011;11407;56.964;-2.212;2023-05-10T10:52:38;5.93;;;4.20;;
22480;SDS011;11407;56.964;-2.212;2023-05-10T10:57:51;7.73;;;5.23;;
22480;SDS011;11407;56.964;-2.212;2023-05-10T11:02:53;5.93;;;4.40;;
22480;SDS011;11407;56.964;-2.212;2023-05-10T11:08:02;6.63;;;4.67;;
22480;SDS011;11407;56.964;-2.212;2023-05-10T11:10:31;7.20;;;5.17;;
22480;SDS011;11407;56.964;-2.212;2023-05-10T11:13:04;6.03;;;4.70;;
22480;SDS011;11407;56.964;-2.212;2023-05-10T11:15:34;7.30;;;5.33;;
22480;SDS011;11407;56.964;-2.212;2023-05-10T11:17:59;6.50;;;5.20;;
22480;SDS011;11407;56.964;-2.212;2023-05-10T11:20:28;7.20;;;5.23;;
22480;SDS011;11407;56.964;-2.212;2023-05-10T11:23:00;8.13;;;5.53;;
22480;SDS011;11407;56.964;-2.212;2023-05-10T11:25:35;6.77;;;5.20;;
22480;SDS011;11407;56.964;-2.212;2023-05-10T11:28:05;7.30;;;5.73;;
22480;SDS011;11407;56.964;-2.212;2023-05-10T11:30:31;6.43;;;5.67;;
22480;SDS011;11407;56.964;-2.212;2023-05-10T11:32:56;7.47;;;5.80;;
22480;SDS011;11407;56.964;-2.212;2023-05-10T11:35:21;9.07;;;6.27;;
22480;SDS011;11407;56.964;-2.212;2023-05-10T11:37:47;7.87;;;6.60;;
22480;SDS011;11407;56.964;-2.212;2023-05-10T11:40:13;8.80;;;6.47;;
22480;SDS011;11407;56.964;-2.212;2023-05-10T11:42:39;7.93;;;6.57;;
22480;SDS011;11407;56.964;-2.212;2023-05-10T11:45:05;9.03;;;6.17;;
22480;SDS011;11407;56.964;-2.212;2023-05-10T11:47:30;8.13;;;6.37;;
22480;SDS011;11407;56.964;-2.212;2023-05-10T11:49:56;7.87;;;6.33;;
22480;SDS011;11407;56.964;-2.212;2023-05-10T11:52:21;9.60;;;6.87;;
22480;SDS011;11407;56.964;-2.212;2023-05-10T11:54:53;8.70;;;6.83;;
22480;SDS011;11407;56.964;-2.212;2023-05-10T11:57:19;8.47;;;7.10;;
22480;SDS011;11407;56.964;-2.212;2023-05-10T11:59:45;8.70;;;6.83;;
22480;SDS011;11407;56.964;-2.212;2023-05-10T12:02:11;9.00;;;7.00;;
22480;SDS011;11407;56.964;-2.212;2023-05-10T12:04:36;8.93;;;6.97;;
22480;SDS011;11407;56.964;-2.212;2023-05-10T12:07:01;12.43;;;7.03;;
22480;SDS011;11407;56.964;-2.212;2023-05-10T12:09:27;10.53;;;6.93;;
22480;SDS011;11407;56.964;-2.212;2023-05-10T12:11:54;9.67;;;7.17;;
22480;SDS011;11407;56.964;-2.212;2023-05-10T12:14:21;8.60;;;7.17;;
22480;SDS011;11407;56.964;-2.212;2023-05-10T12:16:46;8.77;;;7.13;;
22480;SDS011;11407;56.964;-2.212;2023-05-10T12:19:12;10.10;;;7.80;;
22480;SDS011;11407;56.964;-2.212;2023-05-10T12:21:37;7.63;;;6.80;;
22480;SDS011;11407;56.964;-2.212;2023-05-10T12:24:04;9.30;;;7.30;;
22480;SDS011;11407;56.964;-2.212;2023-05-10T12:26:30;9.70;;;7.97;;
22480;SDS011;11407;56.964;-2.212;2023-05-10T12:29:10;11.80;;;8.53;;
22480;SDS011;11407;56.964;-2.212;2023-05-10T12:31:48;11.70;;;8.57;;
22480;SDS011;11407;56.964;-2.212;2023-05-10T12:34:22;10.33;;;8.03;;
22480;SDS011;11407;56.964;-2.212;2023-05-10T12:36:49;11.43;;;7.90;;
22480;SDS011;11407;56.964;-2.212;2023-05-10T12:39:15;11.33;;;7.83;;
22480;SDS011;11407;56.964;-2.212;2023-05-10T12:41:40;9.50;;;7.63;;
22480;SDS011;11407;56.964;-2.212;2023-05-10T12:44:05;9.13;;;7.27;;
22480;SDS011;11407;56.964;-2.212;2023-05-10T12:46:31;9.77;;;7.50;;
22480;SDS011;11407;56.964;-2.212;2023-05-10T12:48:56;9.47;;;7.30;;
22480;SDS011;11407;56.964;-2.212;2023-05-10T12:51:21;9.83;;;8.07;;
22480;SDS011;11407;56.964;-2.212;2023-05-10T12:53:47;10.00;;;6.50;;
22480;SDS011;11407;56.964;-2.212;2023-05-10T12:56:13;8.90;;;6.00;;
22480;SDS011;11407;56.964;-2.212;2023-05-10T12:58:38;8.80;;;6.27;;
22480;SDS011;11407;56.964;-2.212;2023-05-10T13:01:04;8.43;;;6.03;;
22480;SDS011;11407;56.964;-2.212;2023-05-10T13:03:29;9.00;;;5.47;;
22480;SDS011;11407;56.964;-2.212;2023-05-10T13:05:55;9.53;;;5.77;;
22480;SDS011;11407;56.964;-2.212;2023-05-10T13:08:20;8.43;;;6.63;;
22480;SDS011;11407;56.964;-2.212;2023-05-10T13:10:46;8.93;;;5.93;;
22480;SDS011;11407;56.964;-2.212;2023-05-10T13:13:11;8.80;;;5.57;;
22480;SDS011;11407;56.964;-2.212;2023-05-10T13:15:36;9.70;;;6.10;;
22480;SDS011;11407;56.964;-2.212;2023-05-10T13:18:02;8.43;;;5.40;;
22480;SDS011;11407;56.964;-2.212;2023-05-10T13:20:27;7.57;;;4.63;;
22480;SDS011;11407;56.964;-2.212;2023-05-10T13:22:52;7.17;;;4.50;;
22480;SDS011;11407;56.964;-2.212;2023-05-10T13:25:18;6.70;;;4.63;;
22480;SDS011;11407;56.964;-2.212;2023-05-10T13:27:43;7.17;;;4.40;;
22480;SDS011;11407;56.964;-2.212;2023-05-10T13:30:09;8.13;;;3.80;;
22480;SDS011;11407;56.964;-2.212;2023-05-10T13:32:36;6.63;;;4.00;;
22480;SDS011;11407;56.964;-2.212;2023-05-10T13:35:01;4.90;;;3.17;;
22480;SDS011;11407;56.964;-2.212;2023-05-10T13:37:28;6.10;;;3.33;;
22480;SDS011;11407;56.964;-2.212;2023-05-10T13:39:54;4.97;;;3.13;;
22480;SDS011;11407;56.964;-2.212;2023-05-10T13:42:19;6.50;;;3.30;;
22480;SDS011;11407;56.964;-2.212;2023-05-10T13:44:45;5.20;;;3.80;;
22480;SDS011;11407;56.964;-2.212;2023-05-10T13:47:10;5.70;;;3.43;;
22480;SDS011;11407;56.964;-2.212;2023-05-10T13:49:36;5.43;;;3.07;;
22480;SDS011;11407;56.964;-2.212;2023-05-10T13:52:01;7.93;;;3.33;;
22480;SDS011;11407;56.964;-2.212;2023-05-10T13:54:32;6.03;;;2.90;;
22480;SDS011;11407;56.964;-2.212;2023-05-10T13:56:57;4.20;;;2.83;;
22480;SDS011;11407;56.964;-2.212;2023-05-10T13:59:24;4.53;;;2.80;;
22480;SDS011;11407;56.964;-2.212;2023-05-10T14:01:49;4.47;;;3.20;;
22480;SDS011;11407;56.964;-2.212;2023-05-10T14:04:14;7.43;;;3.63;;
22480;SDS011;11407;56.964;-2.212;2023-05-10T14:06:39;4.77;;;3.37;;
22480;SDS011;11407;56.964;-2.212;2023-05-10T14:09:05;5.97;;;3.33;;
22480;SDS011;11407;56.964;-2.212;2023-05-10T14:11:30;7.90;;;3.70;;
22480;SDS011;11407;56.964;-2.212;2023-05-10T14:13:55;4.10;;;3.00;;
22480;SDS011;11407;56.964;-2.212;2023-05-10T14:16:20;6.23;;;3.33;;
22480;SDS011;11407;56.964;-2.212;2023-05-10T14:18:46;6.10;;;2.73;;
22480;SDS011;11407;56.964;-2.212;2023-05-10T14:21:11;6.13;;;2.93;;
22480;SDS011;11407;56.964;-2.212;2023-05-10T14:23:37;5.97;;;2.70;;
22480;SDS011;11407;56.964;-2.212;2023-05-10T14:26:02;5.00;;;2.87;;
22480;SDS011;11407;56.964;-2.212;2023-05-10T14:28:27;6.77;;;3.07;;
22480;SDS011;11407;56.964;-2.212;2023-05-10T14:30:53;5.17;;;3.20;;
22480;SDS011;11407;56.964;-2.212;2023-05-10T14:33:18;6.60;;;3.17;;
22480;SDS011;11407;56.964;-2.212;2023-05-10T14:35:44;5.23;;;3.00;;
22480;SDS011;11407;56.964;-2.212;2023-05-10T14:38:10;4.70;;;2.43;;
22480;SDS011;11407;56.964;-2.212;2023-05-10T14:40:35;6.37;;;2.50;;
22480;SDS011;11407;56.964;-2.212;2023-05-10T14:43:01;5.67;;;2.80;;
22480;SDS011;11407;56.964;-2.212;2023-05-10T14:45:26;4.67;;;2.60;;
22480;SDS011;11407;56.964;-2.212;2023-05-10T14:47:51;8.60;;;3.00;;
22480;SDS011;11407;56.964;-2.212;2023-05-10T14:50:17;6.17;;;2.73;;
22480;SDS011;11407;56.964;-2.212;2023-05-10T14:52:43;4.07;;;2.47;;
22480;SDS011;11407;56.964;-2.212;2023-05-10T14:55:08;3.90;;;2.67;;
22480;SDS011;11407;56.964;-2.212;2023-05-10T14:57:33;4.53;;;2.70;;
22480;SDS011;11407;56.964;-2.212;2023-05-10T14:59:59;4.80;;;2.80;;
22480;SDS011;11407;56.964;-2.212;2023-05-10T15:02:24;4.67;;;2.80;;
22480;SDS011;11407;56.964;-2.212;2023-05-10T15:04:49;4.33;;;2.80;;